createdAt,value
2018-12-10T00:00:52.560Z,99.00
2018-12-10T00:03:55.785Z,98.80
2018-12-10T00:06:59.122Z,99.00
2018-12-10T00:10:02.373Z,99.10
2018-12-10T00:13:05.593Z,99.20
2018-12-10T00:16:08.891Z,99.10
2018-12-10T00:19:12.147Z,99.30
2018-12-10T00:22:15.369Z,99.90
2018-12-10T00:25:18.652Z,99.80
2018-12-10T00:28:21.943Z,99.60
2018-12-10T00:31:25.172Z,99.50
2018-12-10T00:34:28.539Z,99.30
2018-12-10T00:37:31.777Z,99.40
2018-12-10T00:40:35.015Z,99.30
2018-12-10T00:43:40.949Z,99.20
2018-12-10T00:50:05.755Z,99.20
2018-12-10T00:53:09.760Z,99.20
2018-12-10T00:56:13.021Z,99.40
2018-12-10T00:59:16.245Z,99.50
2018-12-10T01:02:19.519Z,99.80
2018-12-10T01:05:22.844Z,99.80
2018-12-10T01:08:26.051Z,99.70
2018-12-10T01:11:29.293Z,99.50
2018-12-10T01:14:32.518Z,99.60
2018-12-10T01:17:35.736Z,99.20
2018-12-10T01:20:38.996Z,99.20
2018-12-10T01:23:42.217Z,99.00
2018-12-10T01:26:45.432Z,99.00
2018-12-10T01:29:48.661Z,99.10
2018-12-10T01:32:51.884Z,99.20
2018-12-10T01:35:55.105Z,98.90
2018-12-10T01:38:58.338Z,98.80
2018-12-10T01:42:01.637Z,98.90
2018-12-10T01:45:07.448Z,98.90
2018-12-10T01:48:10.753Z,98.70
2018-12-10T01:51:13.979Z,98.70
2018-12-10T01:54:17.203Z,98.60
2018-12-10T01:57:20.444Z,98.80
2018-12-10T02:00:23.708Z,98.60
2018-12-10T02:03:26.957Z,98.50
2018-12-10T02:06:30.213Z,98.70
2018-12-10T02:09:33.489Z,98.50
2018-12-10T02:12:36.709Z,98.30
2018-12-10T02:15:39.929Z,98.20
2018-12-10T02:18:43.204Z,98.20
2018-12-10T02:21:46.409Z,98.20
2018-12-10T02:24:49.632Z,98.10
2018-12-10T02:27:52.869Z,98.00
2018-12-10T02:30:56.127Z,97.90
2018-12-10T02:33:59.461Z,97.90
2018-12-10T02:37:02.768Z,97.70
2018-12-10T02:40:06.910Z,97.80
2018-12-10T02:43:10.205Z,97.80
2018-12-10T02:46:13.421Z,97.60
2018-12-10T02:49:16.649Z,97.70
2018-12-10T02:52:19.871Z,97.60
2018-12-10T02:55:23.185Z,97.60
2018-12-10T02:58:26.414Z,97.70
2018-12-10T03:01:29.666Z,97.90
2018-12-10T03:04:33.005Z,98.00
2018-12-10T03:07:36.233Z,98.00
2018-12-10T03:10:39.460Z,97.90
2018-12-10T03:13:42.753Z,97.90
2018-12-10T03:16:45.972Z,98.10
2018-12-10T03:19:49.252Z,98.30
2018-12-10T03:22:52.465Z,98.00
2018-12-10T03:25:55.764Z,98.00
2018-12-10T03:28:59.039Z,97.80
2018-12-10T03:32:02.251Z,97.70
2018-12-10T03:35:05.629Z,97.40
2018-12-10T03:38:08.962Z,97.20
2018-12-10T03:41:12.330Z,97.20
2018-12-10T03:44:15.666Z,97.40
2018-12-10T03:47:18.912Z,97.20
2018-12-10T03:50:22.169Z,97.50
2018-12-10T03:53:25.399Z,97.30
2018-12-10T03:56:28.739Z,97.70
2018-12-10T03:59:32.089Z,97.90
2018-12-10T04:02:35.349Z,97.80
2018-12-10T04:05:38.662Z,97.80
2018-12-10T04:08:41.909Z,98.20
2018-12-10T04:11:45.143Z,98.30
2018-12-10T04:14:48.460Z,98.70
2018-12-10T04:17:51.694Z,98.70
2018-12-10T04:20:54.948Z,98.80
2018-12-10T04:23:58.170Z,98.80
2018-12-10T04:27:01.471Z,98.90
2018-12-10T04:30:05.783Z,98.90
2018-12-10T04:33:09.099Z,98.70
2018-12-10T04:36:12.314Z,98.30
2018-12-10T04:39:15.618Z,98.60
2018-12-10T04:42:18.889Z,98.80
2018-12-10T04:45:22.253Z,98.90
2018-12-10T04:48:25.488Z,99.00
2018-12-10T04:51:28.836Z,98.90
2018-12-10T04:54:32.060Z,98.90
2018-12-10T04:57:35.318Z,98.70
2018-12-10T05:00:38.653Z,98.80
2018-12-10T05:03:41.954Z,98.90
2018-12-10T05:06:45.157Z,98.80
2018-12-10T05:09:48.373Z,98.80
2018-12-10T05:12:51.595Z,98.60
2018-12-10T05:15:54.816Z,98.60
2018-12-10T05:18:58.037Z,98.70
2018-12-10T05:22:01.351Z,98.70
2018-12-10T05:25:04.957Z,98.70
2018-12-10T05:28:08.200Z,98.60
2018-12-10T05:31:11.456Z,98.50
2018-12-10T05:34:14.688Z,98.80
2018-12-10T05:37:17.960Z,99.40
2018-12-10T05:40:21.206Z,99.10
2018-12-10T05:43:24.462Z,99.50
2018-12-10T05:46:27.680Z,99.80
2018-12-10T05:49:30.901Z,99.90
2018-12-10T05:52:34.157Z,99.90
2018-12-10T05:55:37.381Z,99.90
2018-12-10T05:58:40.639Z,99.90
2018-12-10T06:01:43.896Z,99.90
2018-12-10T06:04:47.092Z,99.80
2018-12-10T06:07:50.349Z,99.80
2018-12-10T06:10:53.632Z,99.90
2018-12-10T06:13:56.869Z,99.80
2018-12-10T06:17:00.121Z,99.70
2018-12-10T06:20:05.022Z,99.60
2018-12-10T06:23:08.222Z,99.70
2018-12-10T06:26:11.502Z,99.90
2018-12-10T06:29:14.712Z,99.90
2018-12-10T06:32:17.975Z,99.90
2018-12-10T06:35:21.234Z,99.90
2018-12-10T06:38:24.455Z,99.90
2018-12-10T06:41:27.740Z,99.90
2018-12-10T06:44:31.038Z,99.90
2018-12-10T06:47:34.375Z,99.90
2018-12-10T06:50:37.571Z,99.90
2018-12-10T06:53:40.805Z,99.90
2018-12-10T06:56:44.072Z,99.90
2018-12-10T06:59:47.300Z,99.90
2018-12-10T07:02:50.561Z,99.90
2018-12-10T07:05:53.841Z,99.90
2018-12-10T07:08:57.144Z,99.90
2018-12-10T07:12:00.357Z,99.90
2018-12-10T07:15:04.113Z,99.90
2018-12-10T07:18:07.423Z,99.90
2018-12-10T07:21:10.636Z,99.90
2018-12-10T07:24:13.873Z,99.90
2018-12-10T07:27:17.123Z,99.90
2018-12-10T07:30:20.326Z,99.90
2018-12-10T07:33:23.540Z,99.90
2018-12-10T07:36:26.785Z,99.90
2018-12-10T07:39:30.012Z,99.90
2018-12-10T07:42:33.228Z,99.90
2018-12-10T07:45:36.509Z,99.70
2018-12-10T07:48:39.713Z,99.50
2018-12-10T07:51:43.098Z,99.70
2018-12-10T07:54:46.304Z,99.40
2018-12-10T07:57:49.593Z,99.30
2018-12-10T08:00:52.856Z,99.20
2018-12-10T08:03:56.082Z,99.30
2018-12-10T08:06:59.292Z,98.90
2018-12-10T08:10:02.542Z,98.70
2018-12-10T08:13:05.821Z,98.90
2018-12-10T08:16:09.171Z,98.90
2018-12-10T08:19:12.562Z,98.60
2018-12-10T08:22:15.756Z,98.50
2018-12-10T08:25:18.990Z,98.40
2018-12-10T08:28:22.215Z,98.30
2018-12-10T08:31:25.448Z,98.30
2018-12-10T08:34:28.772Z,98.40
2018-12-10T08:37:32.048Z,97.90
2018-12-10T08:40:35.276Z,97.90
2018-12-10T08:43:38.538Z,97.60
2018-12-10T08:46:41.737Z,97.80
2018-12-10T08:49:44.994Z,97.70
2018-12-10T08:52:48.200Z,97.60
2018-12-10T08:55:51.444Z,97.80
2018-12-10T08:58:54.720Z,97.90
2018-12-10T09:01:57.971Z,97.70
2018-12-10T09:05:01.208Z,97.90
2018-12-10T09:08:04.465Z,97.90
2018-12-10T09:11:07.714Z,97.90
2018-12-10T09:14:10.933Z,97.90
2018-12-10T09:17:14.265Z,98.00
2018-12-10T09:20:17.544Z,97.80
2018-12-10T09:23:20.788Z,97.50
2018-12-10T09:26:24.501Z,97.80
2018-12-10T09:29:27.766Z,98.00
2018-12-10T09:32:31.089Z,97.70
2018-12-10T09:35:34.297Z,97.90
2018-12-10T09:38:37.546Z,97.70
2018-12-10T09:41:40.800Z,97.20
2018-12-10T09:44:44.027Z,96.90
2018-12-10T09:47:47.269Z,95.70
2018-12-10T09:50:50.480Z,96.10
2018-12-10T09:53:53.760Z,96.00
2018-12-10T09:56:56.954Z,95.70
2018-12-10T10:00:00.217Z,95.70
2018-12-10T10:03:03.418Z,95.20
2018-12-10T10:06:06.673Z,95.30
2018-12-10T10:09:09.878Z,95.30
2018-12-10T10:12:13.236Z,95.30
2018-12-10T10:15:16.475Z,96.00
2018-12-10T10:18:19.876Z,95.70
2018-12-10T10:21:23.129Z,95.80
2018-12-10T10:24:26.366Z,95.70
2018-12-10T10:27:29.584Z,95.90
2018-12-10T10:30:32.815Z,95.20
2018-12-10T10:33:36.038Z,95.70
2018-12-10T10:36:39.292Z,95.70
2018-12-10T10:39:42.518Z,95.30
2018-12-10T10:42:45.795Z,95.60
2018-12-10T10:45:49.005Z,95.80
2018-12-10T10:48:52.412Z,96.30
2018-12-10T10:51:55.683Z,96.20
2018-12-10T10:54:58.933Z,96.10
2018-12-10T10:58:02.260Z,96.40
2018-12-10T11:01:10.968Z,96.30
2018-12-10T11:04:14.391Z,96.10
2018-12-10T11:07:17.590Z,96.70
2018-12-10T11:10:20.898Z,96.40
2018-12-10T11:13:24.094Z,96.60
2018-12-10T11:16:27.401Z,96.30
2018-12-10T11:19:30.620Z,95.90
2018-12-10T11:22:33.952Z,95.80
2018-12-10T11:25:37.183Z,96.30
2018-12-10T11:28:40.444Z,96.20
2018-12-10T11:31:43.705Z,96.10
2018-12-10T11:34:47.089Z,95.90
2018-12-10T11:37:50.470Z,95.80
2018-12-10T11:40:53.749Z,96.00
2018-12-10T11:43:56.981Z,95.90
2018-12-10T11:47:00.229Z,95.60
2018-12-10T11:50:05.244Z,95.60
2018-12-10T11:53:08.533Z,95.60
2018-12-10T11:56:11.854Z,95.90
2018-12-10T11:59:15.067Z,96.00
2018-12-10T12:02:18.285Z,96.10
2018-12-10T12:05:21.536Z,96.20
2018-12-10T12:08:24.769Z,95.70
2018-12-10T12:11:27.976Z,95.50
2018-12-10T12:14:31.189Z,95.80
2018-12-10T12:17:34.535Z,96.00
2018-12-10T12:20:37.752Z,95.80
2018-12-10T12:23:40.985Z,95.80
2018-12-10T12:26:45.625Z,95.40
2018-12-10T12:29:49.077Z,95.20
2018-12-10T12:32:52.375Z,95.50
2018-12-10T12:35:55.700Z,95.40
2018-12-10T12:38:59.001Z,95.40
2018-12-10T12:42:02.267Z,95.20
2018-12-10T12:45:06.030Z,95.10
2018-12-10T12:48:09.361Z,94.90
2018-12-10T12:51:12.599Z,94.90
2018-12-10T12:54:15.924Z,94.70
2018-12-10T12:57:19.179Z,94.60
2018-12-10T13:00:26.980Z,95.10
2018-12-10T13:03:27.682Z,94.90
2018-12-10T13:06:30.924Z,95.30
2018-12-10T13:09:34.144Z,95.30
2018-12-10T13:12:37.429Z,96.10
2018-12-10T13:15:40.676Z,96.00
2018-12-10T13:18:43.942Z,94.20
2018-12-10T13:21:47.208Z,90.60
2018-12-10T13:24:50.438Z,86.10
2018-12-10T13:27:53.691Z,86.70
2018-12-10T13:30:56.930Z,88.60
2018-12-10T13:34:00.151Z,90.20
2018-12-10T13:37:03.458Z,90.30
2018-12-10T13:40:07.821Z,89.60
2018-12-10T13:43:11.056Z,90.10
2018-12-10T13:46:15.459Z,89.70
2018-12-10T13:49:18.805Z,90.30
2018-12-10T13:52:22.025Z,90.70
2018-12-10T13:55:28.915Z,91.50
2018-12-10T13:58:30.749Z,92.40
2018-12-10T14:01:34.009Z,93.00
2018-12-10T14:07:52.705Z,93.10
2018-12-10T14:10:56.008Z,92.90
2018-12-10T14:13:59.220Z,92.10
2018-12-10T14:17:02.555Z,91.60
2018-12-10T14:20:06.193Z,91.20
2018-12-10T14:23:09.504Z,91.50
2018-12-10T14:26:12.716Z,92.20
2018-12-10T14:29:15.977Z,92.50
2018-12-10T14:32:19.202Z,92.60
2018-12-10T14:35:22.412Z,92.90
2018-12-10T14:38:25.665Z,92.50
2018-12-10T14:41:28.932Z,92.90
2018-12-10T14:44:32.153Z,93.00
2018-12-10T14:47:35.444Z,93.20
2018-12-10T14:50:38.713Z,93.50
2018-12-10T14:53:42.066Z,93.60
2018-12-10T14:56:45.292Z,93.80
2018-12-10T14:59:48.516Z,93.90
2018-12-10T15:02:51.746Z,94.00
2018-12-10T15:05:55.054Z,94.30
2018-12-10T15:08:58.254Z,95.00
2018-12-10T15:12:01.517Z,95.00
2018-12-10T15:15:05.804Z,94.90
2018-12-10T15:18:09.028Z,94.40
2018-12-10T15:21:12.278Z,93.70
2018-12-10T15:24:15.599Z,94.40
2018-12-10T15:27:18.840Z,94.90
2018-12-10T15:30:22.063Z,95.70
2018-12-10T15:33:25.318Z,96.00
2018-12-10T15:36:28.570Z,96.00
2018-12-10T15:39:31.931Z,96.30
2018-12-10T15:42:35.159Z,96.50
2018-12-10T15:45:38.380Z,96.70
2018-12-10T15:48:41.604Z,96.80
2018-12-10T15:51:44.856Z,96.80
2018-12-10T15:54:48.077Z,97.10
2018-12-10T15:57:51.304Z,97.20
2018-12-10T16:00:54.602Z,97.30
2018-12-10T16:03:57.813Z,97.50
2018-12-10T16:07:01.087Z,97.60
2018-12-10T16:10:07.565Z,97.70
2018-12-10T16:13:10.817Z,97.80
2018-12-10T16:16:14.076Z,97.80
2018-12-10T16:19:17.297Z,97.60
2018-12-10T16:22:20.516Z,97.60
2018-12-10T16:25:23.747Z,97.50
2018-12-10T16:28:27.040Z,97.60
2018-12-10T16:31:30.246Z,97.40
2018-12-10T16:34:33.609Z,97.30
2018-12-10T16:37:36.920Z,97.30
2018-12-10T16:40:40.126Z,97.20
2018-12-10T16:43:43.359Z,97.10
2018-12-10T16:46:46.642Z,97.30
2018-12-10T16:49:49.893Z,97.20
2018-12-10T16:52:53.143Z,97.30
2018-12-10T16:55:56.385Z,97.60
2018-12-10T16:58:59.614Z,97.70
2018-12-10T17:02:03.169Z,97.50
2018-12-10T17:05:06.886Z,97.60
2018-12-10T17:08:10.214Z,97.40
2018-12-10T17:11:13.420Z,97.60
2018-12-10T17:14:17.013Z,97.50
2018-12-10T17:17:20.233Z,97.40
2018-12-10T17:20:23.605Z,97.40
2018-12-10T17:23:27.004Z,97.30
2018-12-10T17:26:30.265Z,97.00
2018-12-10T17:29:33.599Z,97.10
2018-12-10T17:32:36.869Z,96.90
2018-12-10T17:35:40.209Z,96.60
2018-12-10T17:38:43.428Z,96.40
2018-12-10T17:41:46.684Z,96.40
2018-12-10T17:44:49.902Z,96.40
2018-12-10T17:47:53.214Z,96.40
2018-12-10T17:50:56.548Z,96.30
2018-12-10T17:54:00.180Z,96.30
2018-12-10T17:57:03.398Z,96.20
2018-12-10T18:00:09.104Z,96.10
2018-12-10T18:03:12.352Z,96.20
2018-12-10T18:06:15.651Z,96.20
2018-12-10T18:09:18.888Z,96.30
2018-12-10T18:12:22.181Z,96.40
2018-12-10T18:15:25.518Z,96.40
2018-12-10T18:18:28.745Z,96.40
2018-12-10T18:21:32.028Z,96.00
2018-12-10T18:24:35.317Z,96.10
2018-12-10T18:27:38.599Z,96.00
2018-12-10T18:30:42.188Z,95.80
2018-12-10T18:33:45.408Z,95.90
2018-12-10T18:36:48.695Z,95.70
2018-12-10T18:39:51.897Z,95.90
2018-12-10T18:42:55.187Z,96.20
2018-12-10T18:45:58.399Z,96.40
2018-12-10T18:49:01.764Z,96.90
2018-12-10T18:52:08.049Z,96.80
2018-12-10T18:55:11.310Z,96.90
2018-12-10T18:58:14.539Z,97.60
2018-12-10T19:01:17.788Z,97.40
2018-12-10T19:04:21.012Z,97.30
2018-12-10T19:07:24.233Z,97.70
2018-12-10T19:10:27.457Z,98.60
2018-12-10T19:13:30.717Z,99.20
2018-12-10T19:16:33.966Z,99.30
2018-12-10T19:19:37.211Z,99.50
2018-12-10T19:22:40.421Z,99.80
2018-12-10T19:25:43.762Z,99.90
2018-12-10T19:28:46.981Z,99.90
2018-12-10T19:31:50.235Z,99.90
2018-12-10T19:34:53.481Z,99.90
2018-12-10T19:37:56.705Z,99.90
2018-12-10T19:40:59.963Z,99.90
2018-12-10T19:44:03.263Z,99.90
2018-12-10T19:47:06.464Z,99.90
2018-12-10T19:50:09.840Z,99.80
2018-12-10T19:53:13.073Z,99.90
2018-12-10T19:56:16.328Z,99.80
2018-12-10T19:59:19.572Z,99.80
2018-12-10T20:02:22.812Z,99.90
2018-12-10T20:08:47.180Z,99.90
2018-12-10T20:11:50.511Z,99.90
2018-12-10T20:14:53.732Z,99.90
2018-12-10T20:17:57.399Z,99.90
2018-12-10T20:21:00.924Z,99.90
2018-12-10T20:24:04.400Z,99.90
2018-12-10T20:27:07.782Z,99.90
2018-12-10T20:30:11.278Z,99.90
2018-12-10T20:33:14.873Z,99.90
2018-12-10T20:36:18.293Z,99.90
2018-12-10T20:39:21.585Z,99.90
2018-12-10T20:42:25.772Z,99.90
2018-12-10T20:45:28.997Z,99.90
2018-12-10T20:48:32.266Z,99.90
2018-12-10T20:51:35.547Z,99.90
2018-12-10T20:54:38.987Z,99.90
2018-12-10T20:57:42.225Z,99.90
2018-12-10T21:00:45.468Z,99.90
2018-12-10T21:03:48.704Z,99.90
2018-12-10T21:06:51.945Z,99.90
2018-12-10T21:09:55.172Z,99.90
2018-12-10T21:12:58.402Z,99.90
2018-12-10T21:16:01.692Z,99.90
2018-12-10T21:19:04.906Z,99.90
2018-12-10T21:22:08.201Z,99.90
2018-12-10T21:25:11.520Z,99.90
2018-12-10T21:28:14.768Z,99.90
2018-12-10T21:31:18.001Z,99.90
2018-12-10T21:34:21.224Z,99.90
2018-12-10T21:37:24.495Z,99.90
2018-12-10T21:40:27.823Z,99.90
2018-12-10T21:43:31.161Z,99.90
2018-12-10T21:46:34.378Z,99.90
2018-12-10T21:49:37.606Z,99.90
2018-12-10T21:52:40.833Z,99.90
2018-12-10T21:55:44.068Z,99.90
2018-12-10T21:58:47.294Z,99.90
2018-12-10T22:01:50.852Z,99.90
2018-12-10T22:04:54.064Z,99.90
2018-12-10T22:07:57.289Z,99.90
2018-12-10T22:11:00.504Z,99.90
2018-12-10T22:14:03.790Z,99.90
2018-12-10T22:17:07.015Z,99.70
2018-12-10T22:20:10.262Z,99.90
2018-12-10T22:23:13.485Z,99.90
2018-12-10T22:26:16.729Z,99.90
2018-12-10T22:29:19.948Z,99.90
2018-12-10T22:32:23.257Z,99.90
2018-12-10T22:35:26.458Z,99.90
2018-12-10T22:38:29.733Z,99.90
2018-12-10T22:41:32.938Z,99.90
2018-12-10T22:44:36.163Z,99.90
2018-12-10T22:47:39.384Z,99.90
2018-12-10T22:50:42.609Z,99.90
2018-12-10T22:53:45.946Z,99.90
2018-12-10T22:56:49.172Z,99.90
2018-12-10T22:59:52.397Z,99.90
2018-12-10T23:02:55.623Z,99.90
2018-12-10T23:05:58.833Z,99.90
2018-12-10T23:09:02.065Z,99.90
2018-12-10T23:12:05.378Z,99.90
2018-12-10T23:15:08.690Z,99.90
2018-12-10T23:18:11.896Z,99.90
2018-12-10T23:21:15.194Z,99.90
2018-12-10T23:24:18.505Z,99.90
2018-12-10T23:27:21.788Z,99.90
2018-12-10T23:30:24.993Z,99.90
2018-12-10T23:33:28.272Z,99.90
2018-12-10T23:36:31.501Z,99.90
2018-12-10T23:39:34.756Z,99.90
2018-12-10T23:45:58.989Z,99.90
2018-12-10T23:49:02.233Z,99.90
2018-12-10T23:52:05.505Z,99.90
2018-12-10T23:55:08.834Z,99.90
2018-12-10T23:58:12.064Z,99.90
